Time;durP1;ratioP1;P1;durP2;ratioP2;P2;SDS_P1;SDS_P2;PMS_P1;PMS_P2;Temp;Humidity;BMP_temperature;BMP_pressure;BME280_temperature;BME280_humidity;BME280_pressure;Samples;Min_cycle;Max_cycle;Signal;HPM_P1;HPM_P2
2021/11/05 00:02:20;;;;;;;5.47;2.78;;;20.10;46.20;;;;;;4919009;29;20024;-65
2021/11/05 00:04:46;;;;;;;5.30;2.50;;;20.20;46.20;;;;;;4918706;29;20024;-64
2021/11/05 00:07:11;;;;;;;6.45;2.95;;;20.10;46.20;;;;;;4918598;29;20440;-64
2021/11/05 00:09:37;;;;;;;4.70;2.38;;;20.20;46.20;;;;;;4918772;29;20028;-64
2021/11/05 00:12:03;;;;;;;4.78;2.40;;;20.10;46.30;;;;;;4918794;29;20056;-66
2021/11/05 00:14:28;;;;;;;6.05;2.70;;;20.10;46.20;;;;;;4918340;29;20040;-64
2021/11/05 00:16:54;;;;;;;5.43;2.72;;;20.10;46.20;;;;;;4918433;29;20078;-65
2021/11/05 00:19:19;;;;;;;4.85;2.42;;;20.10;46.20;;;;;;4918416;29;20073;-65
2021/11/05 00:21:45;;;;;;;5.40;2.65;;;20.10;46.30;;;;;;4917083;29;20024;-65
2021/11/05 00:24:10;;;;;;;5.22;2.20;;;20.10;46.30;;;;;;4918291;29;20047;-65
2021/11/05 00:26:36;;;;;;;6.43;2.95;;;20.10;46.20;;;;;;4918306;29;20025;-66
2021/11/05 00:29:02;;;;;;;5.22;2.33;;;20.10;46.30;;;;;;4918161;29;20643;-65
2021/11/05 00:31:27;;;;;;;4.57;2.42;;;20.10;46.30;;;;;;4918224;29;20028;-65
2021/11/05 00:33:53;;;;;;;5.78;2.80;;;20.10;46.20;;;;;;4918089;29;20095;-65
2021/11/05 00:36:18;;;;;;;5.65;2.58;;;20.10;46.20;;;;;;4918173;29;20030;-65
2021/11/05 00:38:45;;;;;;;6.25;2.63;;;20.10;46.20;;;;;;4918205;29;20056;-65
2021/11/05 00:41:13;;;;;;;5.63;2.28;;;20.10;46.30;;;;;;4918051;29;20028;-65
2021/11/05 00:43:38;;;;;;;4.75;2.88;;;20.10;46.20;;;;;;4918004;29;20099;-65
2021/11/05 00:46:04;;;;;;;5.97;2.63;;;20.10;46.30;;;;;;4917943;29;20032;-65
2021/11/05 00:48:30;;;;;;;4.57;2.42;;;20.10;46.20;;;;;;4917920;29;20024;-65
2021/11/05 00:50:56;;;;;;;7.10;3.05;;;20.10;46.30;;;;;;4916638;29;20429;-64
2021/11/05 00:53:21;;;;;;;5.13;2.42;;;20.10;46.20;;;;;;4917763;29;20119;-65
2021/11/05 00:55:47;;;;;;;6.03;3.00;;;20.10;46.20;;;;;;4917810;29;20068;-64
2021/11/05 00:58:13;;;;;;;5.38;2.70;;;20.10;46.30;;;;;;4917635;29;20092;-65
2021/11/05 01:00:38;;;;;;;4.40;2.38;;;20.10;46.20;;;;;;4917671;29;20037;-65
2021/11/05 01:03:04;;;;;;;5.25;2.85;;;20.10;46.20;;;;;;4917672;29;20111;-65
2021/11/05 01:05:29;;;;;;;5.38;2.50;;;20.10;46.30;;;;;;4917482;29;20028;-65
2021/11/05 01:07:55;;;;;;;5.35;2.47;;;20.10;46.30;;;;;;4917556;29;20028;-65
2021/11/05 01:10:21;;;;;;;5.22;2.40;;;20.10;46.30;;;;;;4917589;29;20024;-64
2021/11/05 01:12:46;;;;;;;6.07;2.90;;;20.10;46.30;;;;;;4917443;29;20584;-65
2021/11/05 01:15:13;;;;;;;5.70;2.85;;;20.10;46.30;;;;;;4917712;29;20032;-64
2021/11/05 01:17:40;;;;;;;5.53;2.90;;;20.10;46.30;;;;;;4917471;29;20027;-64
2021/11/05 01:20:08;;;;;;;5.97;2.47;;;20.10;46.30;;;;;;4917371;29;20036;-65
2021/11/05 01:22:33;;;;;;;4.57;2.17;;;20.10;46.30;;;;;;4917593;29;20032;-65
2021/11/05 01:24:59;;;;;;;5.47;2.83;;;20.10;46.30;;;;;;4917413;29;20505;-65
2021/11/05 01:27:24;;;;;;;5.75;2.90;;;20.10;46.20;;;;;;4916980;29;20496;-64
2021/11/05 01:29:52;;;;;;;6.43;3.25;;;20.10;46.30;;;;;;4917224;29;20051;-65
2021/11/05 01:32:18;;;;;;;5.78;3.25;;;20.00;46.30;;;;;;4917113;29;20075;-65
2021/11/05 01:34:44;;;;;;;5.93;2.88;;;20.10;46.30;;;;;;4917321;29;20052;-65
2021/11/05 01:37:09;;;;;;;5.35;2.90;;;20.10;46.30;;;;;;4917124;29;20020;-64
2021/11/05 01:39:35;;;;;;;5.97;3.10;;;20.00;46.30;;;;;;4917309;29;20080;-65
2021/11/05 01:42:01;;;;;;;6.80;2.88;;;20.00;46.30;;;;;;4917386;29;20337;-65
2021/11/05 01:44:26;;;;;;;5.55;2.97;;;20.00;46.30;;;;;;4917036;29;20020;-65
2021/11/05 01:46:52;;;;;;;4.97;2.70;;;20.10;46.20;;;;;;4916966;29;20028;-65
2021/11/05 01:49:18;;;;;;;5.43;2.70;;;20.00;46.20;;;;;;4916919;29;20103;-65
2021/11/05 01:51:45;;;;;;;5.20;2.65;;;20.00;46.30;;;;;;4916830;29;20530;-64
2021/11/05 01:54:12;;;;;;;5.50;3.08;;;20.00;46.30;;;;;;4916823;29;20044;-64
2021/11/05 01:56:41;;;;;;;6.53;2.90;;;20.00;46.30;;;;;;4917167;29;20441;-64
2021/11/05 01:59:06;;;;;;;5.28;2.90;;;20.10;46.30;;;;;;4916682;29;20503;-65
2021/11/05 02:01:34;;;;;;;6.70;3.40;;;20.00;46.20;;;;;;4916802;29;20040;-64
2021/11/05 02:04:00;;;;;;;5.82;3.13;;;20.10;46.20;;;;;;4916730;29;20074;-64
2021/11/05 02:06:27;;;;;;;4.97;2.53;;;20.00;46.30;;;;;;4916942;29;20115;-65
2021/11/05 02:08:53;;;;;;;6.13;3.15;;;20.10;46.20;;;;;;4916182;29;20424;-65
2021/11/05 02:11:20;;;;;;;5.68;3.00;;;20.10;46.20;;;;;;4916652;29;20107;-65
2021/11/05 02:13:47;;;;;;;5.43;3.10;;;20.10;46.20;;;;;;4915282;29;20036;-65
2021/11/05 02:16:13;;;;;;;5.07;2.85;;;20.10;46.20;;;;;;4916681;29;20123;-65
2021/11/05 02:18:43;;;;;;;5.80;2.85;;;20.10;46.20;;;;;;4916615;29;20035;-64
2021/11/05 02:21:11;;;;;;;5.55;2.80;;;20.10;46.30;;;;;;4916899;29;20035;-64
2021/11/05 02:23:36;;;;;;;5.47;2.63;;;20.00;46.30;;;;;;4916779;29;20038;-65
2021/11/05 02:26:03;;;;;;;6.13;3.10;;;20.10;46.20;;;;;;4916491;29;20024;-65
2021/11/05 02:28:36;;;;;;;5.97;2.85;;;20.10;46.20;;;;;;4916313;29;20048;-65
2021/11/05 02:31:01;;;;;;;5.70;2.80;;;20.00;46.30;;;;;;4916447;29;20491;-65
2021/11/05 02:33:27;;;;;;;6.15;2.67;;;20.10;46.20;;;;;;4916307;29;20044;-65
2021/11/05 02:35:52;;;;;;;6.25;2.90;;;20.10;46.30;;;;;;4916389;29;20083;-64
2021/11/05 02:38:19;;;;;;;6.05;3.45;;;20.00;46.20;;;;;;4916508;29;20024;-65
2021/11/05 02:40:44;;;;;;;6.10;3.03;;;20.00;46.30;;;;;;4915142;29;20024;-64
2021/11/05 02:43:10;;;;;;;6.07;3.15;;;20.00;46.30;;;;;;4916408;29;20054;-65
2021/11/05 02:45:36;;;;;;;6.72;3.25;;;20.00;46.30;;;;;;4916401;29;20035;-65
2021/11/05 02:48:03;;;;;;;6.82;3.40;;;20.00;46.30;;;;;;4916346;29;20080;-64
2021/11/05 02:50:28;;;;;;;5.78;2.85;;;20.10;46.30;;;;;;4916332;29;20107;-65
2021/11/05 02:52:54;;;;;;;5.38;2.70;;;20.00;46.30;;;;;;4916285;29;20110;-65
2021/11/05 02:55:21;;;;;;;6.28;3.35;;;20.00;46.30;;;;;;4916265;29;20492;-64
2021/11/05 02:57:46;;;;;;;5.97;3.00;;;20.10;46.30;;;;;;4916553;29;20035;-65
2021/11/05 03:00:14;;;;;;;7.25;2.95;;;20.10;46.30;;;;;;4916278;29;20038;-65
2021/11/05 03:02:40;;;;;;;6.65;3.58;;;20.00;46.30;;;;;;4916271;29;20034;-64
2021/11/05 03:05:05;;;;;;;4.78;2.58;;;20.00;46.30;;;;;;4916297;29;20032;-65
2021/11/05 03:07:31;;;;;;;6.28;2.95;;;20.10;46.30;;;;;;4916493;29;20070;-65
2021/11/05 03:09:56;;;;;;;6.18;3.28;;;20.00;46.30;;;;;;4916255;29;20493;-65
2021/11/05 03:12:22;;;;;;;6.75;3.40;;;20.00;46.30;;;;;;4916195;29;20035;-65
2021/11/05 03:14:47;;;;;;;5.15;2.58;;;20.00;46.30;;;;;;4916135;29;20517;-65
2021/11/05 03:17:14;;;;;;;6.47;3.60;;;20.00;46.30;;;;;;4916202;29;20036;-65
2021/11/05 03:19:40;;;;;;;6.00;3.15;;;20.00;46.30;;;;;;4916133;29;20024;-65
2021/11/05 03:22:06;;;;;;;6.13;3.47;;;20.00;46.30;;;;;;4918434;29;20111;-65
2021/11/05 03:24:32;;;;;;;6.18;3.25;;;20.00;46.30;;;;;;4919496;29;20447;-65
2021/11/05 03:26:57;;;;;;;6.45;3.38;;;20.00;46.30;;;;;;4919358;29;20040;-65
2021/11/05 03:29:23;;;;;;;6.35;3.35;;;20.00;46.30;;;;;;4919594;29;20051;-65
2021/11/05 03:31:48;;;;;;;6.63;3.40;;;20.00;46.30;;;;;;4919557;29;20043;-65
2021/11/05 03:34:14;;;;;;;6.80;3.50;;;20.00;46.30;;;;;;4917951;29;20044;-65
2021/11/05 03:36:39;;;;;;;5.45;3.28;;;20.00;46.30;;;;;;4919299;29;20036;-64
2021/11/05 03:39:06;;;;;;;6.68;3.40;;;20.00;46.30;;;;;;4919158;29;20107;-65
2021/11/05 03:41:32;;;;;;;6.78;3.08;;;20.00;46.40;;;;;;4918061;29;20032;-65
2021/11/05 03:43:57;;;;;;;7.50;3.40;;;20.00;46.30;;;;;;4919348;29;20107;-65
2021/11/05 03:46:23;;;;;;;6.32;3.53;;;20.00;46.30;;;;;;4919183;29;20028;-64
2021/11/05 03:48:48;;;;;;;6.20;3.35;;;20.00;46.30;;;;;;4919049;29;20032;-64
2021/11/05 03:51:14;;;;;;;6.47;3.40;;;20.00;46.30;;;;;;4918993;29;20469;-65
2021/11/05 03:53:40;;;;;;;5.85;3.05;;;20.00;46.30;;;;;;4918860;29;20048;-64
2021/11/05 03:56:06;;;;;;;6.40;3.58;;;20.00;46.30;;;;;;4917721;29;20046;-65
2021/11/05 03:58:32;;;;;;;6.22;3.10;;;20.00;46.30;;;;;;4918845;29;20028;-65
2021/11/05 04:00:58;;;;;;;6.32;3.33;;;20.00;46.30;;;;;;4918796;29;20020;-64
2021/11/05 04:03:23;;;;;;;6.65;3.50;;;20.00;46.30;;;;;;4919034;29;20028;-64
2021/11/05 04:05:50;;;;;;;6.25;3.13;;;20.00;46.30;;;;;;4917553;29;20111;-65
2021/11/05 04:08:15;;;;;;;6.43;3.38;;;20.00;46.30;;;;;;4918722;29;20080;-64
2021/11/05 04:10:41;;;;;;;7.07;3.70;;;20.00;46.30;;;;;;4918521;29;20044;-65
2021/11/05 04:13:07;;;;;;;6.57;3.10;;;20.00;46.30;;;;;;4918614;29;20116;-64
2021/11/05 04:15:33;;;;;;;6.47;3.60;;;20.00;46.30;;;;;;4918599;29;20036;-65
2021/11/05 04:17:58;;;;;;;6.60;3.35;;;20.00;46.30;;;;;;4918533;29;20075;-65
2021/11/05 04:20:24;;;;;;;6.00;3.35;;;20.00;46.30;;;;;;4918537;29;20032;-65
2021/11/05 04:22:50;;;;;;;7.03;3.92;;;20.00;46.30;;;;;;4918668;29;20491;-65
2021/11/05 04:25:16;;;;;;;5.68;3.10;;;20.00;46.30;;;;;;4918459;29;20067;-64
2021/11/05 04:27:41;;;;;;;6.30;3.53;;;20.00;46.40;;;;;;4918100;29;20044;-64
2021/11/05 04:30:10;;;;;;;6.28;3.33;;;20.00;46.40;;;;;;4918310;29;20115;-64
2021/11/05 04:32:36;;;;;;;6.30;3.10;;;20.00;46.40;;;;;;4917865;29;20036;-64
2021/11/05 04:35:01;;;;;;;6.13;3.45;;;20.00;46.40;;;;;;4918129;29;20115;-65
2021/11/05 04:37:27;;;;;;;7.38;3.75;;;20.00;46.40;;;;;;4918337;29;20484;-64
2021/11/05 04:39:53;;;;;;;6.95;3.15;;;20.00;46.40;;;;;;4918153;29;20032;-65
2021/11/05 04:42:18;;;;;;;6.38;3.10;;;20.00;46.40;;;;;;4918105;29;20028;-64
2021/11/05 04:44:44;;;;;;;6.13;3.20;;;20.00;46.40;;;;;;4918052;29;20020;-64
2021/11/05 04:47:09;;;;;;;6.75;3.33;;;20.00;46.40;;;;;;4917932;29;20391;-64
2021/11/05 04:49:35;;;;;;;6.95;3.58;;;20.00;46.40;;;;;;4918250;29;20035;-65
2021/11/05 04:52:00;;;;;;;5.55;3.03;;;20.00;46.40;;;;;;4917769;29;20032;-64
2021/11/05 04:54:26;;;;;;;7.00;3.08;;;20.00;46.40;;;;;;4917795;29;20047;-65
2021/11/05 04:56:51;;;;;;;6.22;3.20;;;20.00;46.40;;;;;;4916570;29;20116;-64
2021/11/05 04:59:19;;;;;;;6.05;3.25;;;20.00;46.40;;;;;;4917778;29;20055;-65
2021/11/05 05:01:45;;;;;;;7.13;4.00;;;20.00;46.40;;;;;;4916503;29;20028;-65
2021/11/05 05:04:10;;;;;;;7.60;3.17;;;20.00;46.40;;;;;;4917623;29;20038;-65
2021/11/05 05:06:36;;;;;;;6.30;3.15;;;20.00;46.40;;;;;;4917622;29;20032;-64
2021/11/05 05:09:03;;;;;;;6.25;3.17;;;20.00;46.40;;;;;;4917584;29;20040;-65
2021/11/05 05:11:29;;;;;;;7.05;3.38;;;20.00;46.40;;;;;;4917738;29;20028;-65
2021/11/05 05:13:55;;;;;;;6.03;3.28;;;20.00;46.40;;;;;;4917502;29;20047;-64
2021/11/05 05:16:21;;;;;;;5.78;3.15;;;20.00;46.40;;;;;;4916180;29;20055;-64
2021/11/05 05:18:46;;;;;;;7.38;3.42;;;20.00;46.30;;;;;;4917388;29;20132;-65
2021/11/05 05:21:12;;;;;;;5.20;2.85;;;20.00;46.30;;;;;;4917352;29;20028;-64
2021/11/05 05:23:38;;;;;;;6.50;2.88;;;20.00;46.30;;;;;;4916088;29;20025;-65
2021/11/05 05:26:04;;;;;;;6.47;3.33;;;20.10;46.30;;;;;;4917411;29;20447;-65
2021/11/05 05:28:31;;;;;;;5.72;3.00;;;20.10;46.30;;;;;;4917102;29;20047;-65
2021/11/05 05:31:06;;;;;;;6.28;3.08;;;20.10;46.20;;;;;;4917443;29;20036;-64
2021/11/05 05:33:31;;;;;;;6.22;3.42;;;20.10;46.20;;;;;;4917383;29;20039;-65
2021/11/05 05:35:57;;;;;;;6.68;3.17;;;20.20;46.20;;;;;;4917123;29;20025;-64
2021/11/05 05:38:22;;;;;;;5.70;2.70;;;20.20;46.20;;;;;;4917100;29;20532;-64
2021/11/05 05:40:48;;;;;;;5.53;2.88;;;20.20;46.20;;;;;;4915796;29;20062;-64
2021/11/05 05:43:14;;;;;;;5.32;2.60;;;20.20;46.20;;;;;;4916602;29;20032;-65
2021/11/05 05:45:39;;;;;;;6.22;3.15;;;20.20;46.10;;;;;;4916774;29;20492;-65
2021/11/05 05:48:05;;;;;;;6.45;3.30;;;20.20;46.10;;;;;;4917028;29;20476;-65
2021/11/05 05:50:31;;;;;;;6.03;2.90;;;20.20;46.10;;;;;;4915741;29;20091;-65
2021/11/05 05:52:57;;;;;;;6.85;3.40;;;20.20;46.10;;;;;;4917223;29;20070;-64
2021/11/05 05:55:25;;;;;;;6.07;3.10;;;20.20;46.10;;;;;;4916858;29;20051;-65
2021/11/05 05:57:51;;;;;;;8.05;3.50;;;20.20;46.10;;;;;;4916862;29;20075;-64
2021/11/05 06:00:16;;;;;;;5.47;2.97;;;20.30;46.10;;;;;;4917108;29;20106;-65
2021/11/05 06:02:43;;;;;;;7.30;3.50;;;20.20;46.10;;;;;;4916805;29;20053;-65
2021/11/05 06:05:08;;;;;;;5.40;3.00;;;20.20;46.10;;;;;;4915476;29;20425;-65
2021/11/05 06:07:34;;;;;;;6.20;3.45;;;20.20;46.10;;;;;;4916994;29;20101;-64
2021/11/05 06:09:59;;;;;;;5.55;2.78;;;20.20;46.10;;;;;;4916735;29;20065;-65
2021/11/05 06:12:25;;;;;;;6.75;3.17;;;20.30;46.10;;;;;;4916711;29;20032;-64
2021/11/05 06:14:51;;;;;;;5.85;3.05;;;20.30;46.10;;;;;;4916623;29;20131;-65
2021/11/05 06:17:16;;;;;;;6.75;3.33;;;20.20;46.20;;;;;;4916712;29;20031;-65
2021/11/05 06:19:43;;;;;;;7.70;3.50;;;20.30;46.10;;;;;;4916476;29;20025;-64
2021/11/05 06:22:09;;;;;;;6.35;3.13;;;20.30;46.10;;;;;;4916798;29;20511;-64
2021/11/05 06:24:34;;;;;;;6.82;3.30;;;20.30;46.20;;;;;;4916528;29;20032;-64
2021/11/05 06:27:00;;;;;;;7.30;3.50;;;20.20;46.20;;;;;;4916751;29;20027;-64
2021/11/05 06:29:25;;;;;;;7.55;3.50;;;20.20;46.20;;;;;;4916389;29;20508;-65
2021/11/05 06:31:51;;;;;;;6.80;3.20;;;20.20;46.20;;;;;;4916484;29;20099;-64
2021/11/05 06:34:17;;;;;;;8.43;3.50;;;20.20;46.20;;;;;;4916367;29;20043;-64
2021/11/05 06:36:42;;;;;;;7.32;3.75;;;20.20;46.20;;;;;;4916555;29;20472;-64
2021/11/05 06:39:08;;;;;;;6.78;3.17;;;20.20;46.20;;;;;;4916482;29;20028;-64
2021/11/05 06:41:34;;;;;;;6.93;3.20;;;20.20;46.20;;;;;;4916475;29;20380;-64
2021/11/05 06:43:59;;;;;;;6.97;3.20;;;20.20;46.30;;;;;;4916395;29;20028;-64
2021/11/05 06:46:25;;;;;;;6.85;3.13;;;20.20;46.30;;;;;;4916337;29;20059;-65
2021/11/05 06:48:51;;;;;;;6.72;3.17;;;20.20;46.30;;;;;;4916355;29;20072;-65
2021/11/05 06:51:17;;;;;;;7.90;3.60;;;20.20;46.30;;;;;;4916258;29;20036;-64
2021/11/05 06:53:42;;;;;;;5.50;2.92;;;20.20;46.30;;;;;;4916250;29;20071;-65
2021/11/05 06:56:08;;;;;;;7.45;3.58;;;20.20;46.30;;;;;;4918778;29;20049;-65
2021/11/05 06:58:36;;;;;;;6.20;3.20;;;20.20;46.30;;;;;;4919933;29;20384;-64
2021/11/05 07:01:03;;;;;;;7.03;3.53;;;20.20;46.30;;;;;;4920132;29;20110;-65
2021/11/05 07:03:28;;;;;;;6.25;3.22;;;20.20;46.30;;;;;;4919827;29;20055;-65
2021/11/05 07:05:54;;;;;;;8.35;3.88;;;20.20;46.30;;;;;;4919740;29;20500;-65
2021/11/05 07:08:19;;;;;;;7.72;3.55;;;20.30;46.30;;;;;;4919707;29;20488;-65
2021/11/05 07:10:47;;;;;;;7.05;3.47;;;20.20;46.30;;;;;;4918534;29;20531;-65
2021/11/05 07:13:12;;;;;;;6.97;3.63;;;20.20;46.30;;;;;;4919568;29;20492;-65
2021/11/05 07:15:38;;;;;;;6.65;2.92;;;20.20;46.30;;;;;;4919611;29;20036;-64
2021/11/05 07:18:04;;;;;;;7.20;3.50;;;20.20;46.30;;;;;;4919499;29;20032;-65
2021/11/05 07:20:32;;;;;;;8.48;3.90;;;20.20;46.30;;;;;;4918414;29;20028;-65
2021/11/05 07:22:58;;;;;;;8.77;3.67;;;20.30;46.30;;;;;;4919476;29;20063;-65
2021/11/05 07:25:24;;;;;;;8.30;4.30;;;20.20;46.30;;;;;;4919372;29;20535;-64
2021/11/05 07:27:49;;;;;;;6.85;3.63;;;20.20;46.30;;;;;;4919247;29;20131;-64
2021/11/05 07:30:15;;;;;;;7.00;3.47;;;20.30;46.30;;;;;;4919297;29;20052;-64
2021/11/05 07:32:45;;;;;;;8.85;4.40;;;20.30;46.30;;;;;;4919004;29;20028;-64
2021/11/05 07:35:11;;;;;;;8.05;4.00;;;20.20;46.30;;;;;;4919187;29;20103;-64
2021/11/05 07:37:36;;;;;;;7.47;3.53;;;20.30;46.30;;;;;;4919436;29;20044;-64
2021/11/05 07:40:03;;;;;;;7.90;3.95;;;20.30;46.30;;;;;;4919119;29;20515;-65
2021/11/05 07:42:30;;;;;;;8.48;3.95;;;20.30;46.30;;;;;;4919149;29;20032;-65
2021/11/05 07:44:55;;;;;;;8.23;3.47;;;20.30;46.30;;;;;;4918705;29;20032;-65
2021/11/05 07:47:23;;;;;;;7.82;3.88;;;20.30;46.30;;;;;;4919214;29;20028;-64
2021/11/05 07:49:50;;;;;;;7.85;3.97;;;20.30;46.30;;;;;;4917734;29;20020;-65
2021/11/05 07:52:18;;;;;;;8.20;4.40;;;20.30;46.20;;;;;;4919153;29;20032;-64
2021/11/05 07:54:45;;;;;;;7.35;3.65;;;20.30;46.30;;;;;;4918738;29;20086;-65
2021/11/05 07:57:10;;;;;;;8.60;3.70;;;20.30;46.30;;;;;;4918896;29;20029;-65
2021/11/05 07:59:36;;;;;;;8.23;3.92;;;20.30;46.30;;;;;;4918712;29;20105;-64
2021/11/05 08:02:01;;;;;;;8.88;3.97;;;20.30;46.30;;;;;;4917520;29;20180;-65
2021/11/05 08:04:27;;;;;;;7.82;3.67;;;20.30;46.30;;;;;;4918770;29;20032;-65
2021/11/05 08:06:53;;;;;;;9.05;4.00;;;20.30;46.30;;;;;;4917559;29;20028;-65
2021/11/05 08:09:18;;;;;;;8.27;3.85;;;20.30;46.30;;;;;;4918697;29;20032;-65
2021/11/05 08:11:44;;;;;;;9.50;4.95;;;20.30;46.30;;;;;;4918729;29;20380;-65
2021/11/05 08:14:09;;;;;;;9.77;3.92;;;20.30;46.30;;;;;;4918293;29;20062;-65
2021/11/05 08:16:35;;;;;;;7.95;3.83;;;20.30;46.20;;;;;;4918379;29;20020;-65
2021/11/05 08:19:00;;;;;;;9.70;4.55;;;20.30;46.30;;;;;;4918270;29;20091;-65
2021/11/05 08:21:26;;;;;;;9.07;4.38;;;20.30;46.30;;;;;;4918529;29;20024;-64
2021/11/05 08:23:52;;;;;;;9.48;4.32;;;20.30;46.30;;;;;;4918187;29;20104;-65
2021/11/05 08:26:18;;;;;;;9.25;4.20;;;20.30;46.30;;;;;;4917036;29;20020;-64
2021/11/05 08:28:43;;;;;;;9.60;4.43;;;20.30;46.30;;;;;;4917750;29;20048;-65
2021/11/05 08:31:11;;;;;;;7.80;3.53;;;20.30;46.30;;;;;;4918010;29;20034;-64
2021/11/05 08:33:39;;;;;;;8.43;3.67;;;20.30;46.30;;;;;;4918286;29;20115;-65
2021/11/05 08:36:07;;;;;;;9.13;4.03;;;20.30;46.30;;;;;;4917908;29;20032;-65
2021/11/05 08:38:33;;;;;;;9.07;4.30;;;20.30;46.30;;;;;;4918030;29;20032;-65
2021/11/05 08:40:59;;;;;;;9.00;4.20;;;20.30;46.30;;;;;;4918293;29;20029;-65
2021/11/05 08:43:30;;;;;;;9.88;4.40;;;20.30;46.30;;;;;;4900956;29;20035;-65
2021/11/05 08:45:57;;;;;;;9.13;4.38;;;20.30;46.30;;;;;;4916627;29;20392;-65
2021/11/05 08:48:23;;;;;;;9.23;4.25;;;20.30;46.30;;;;;;4918111;29;20020;-65
2021/11/05 08:50:50;;;;;;;8.55;4.57;;;20.30;46.30;;;;;;4917670;29;20514;-65
2021/11/05 08:53:17;;;;;;;9.45;3.97;;;20.30;46.30;;;;;;4917584;29;20035;-65
2021/11/05 08:55:43;;;;;;;9.50;4.63;;;20.40;46.30;;;;;;4917646;29;20076;-65
2021/11/05 08:58:10;;;;;;;9.82;4.28;;;20.30;46.30;;;;;;4917533;29;20428;-65
2021/11/05 09:00:36;;;;;;;9.70;4.47;;;20.30;46.30;;;;;;4917447;29;20072;-65
2021/11/05 09:03:03;;;;;;;9.60;4.55;;;20.30;46.30;;;;;;4917533;29;20020;-65
2021/11/05 09:05:29;;;;;;;10.88;5.07;;;20.40;46.30;;;;;;4917667;29;20563;-65
2021/11/05 09:07:54;;;;;;;9.52;4.75;;;20.30;46.30;;;;;;4917881;29;20020;-65
2021/11/05 09:10:20;;;;;;;10.18;4.65;;;20.30;46.30;;;;;;4917446;29;20028;-65
2021/11/05 09:12:46;;;;;;;10.40;4.85;;;20.30;46.30;;;;;;4917708;29;20032;-65
2021/11/05 09:15:16;;;;;;;10.60;5.13;;;20.40;46.30;;;;;;4917562;29;20499;-65
2021/11/05 09:17:42;;;;;;;8.43;4.32;;;20.30;46.30;;;;;;4916081;29;20111;-65
2021/11/05 09:20:10;;;;;;;10.40;4.38;;;20.30;46.30;;;;;;4917322;29;20118;-65
2021/11/05 09:22:36;;;;;;;9.27;4.32;;;20.40;46.30;;;;;;4917134;29;20531;-65
2021/11/05 09:25:05;;;;;;;12.43;5.40;;;20.40;46.30;;;;;;4917213;29;20118;-65
2021/11/05 09:27:31;;;;;;;10.05;4.55;;;20.30;46.30;;;;;;4917058;29;20444;-65
2021/11/05 09:29:56;;;;;;;11.45;5.40;;;20.30;46.30;;;;;;4917515;29;20032;-65
2021/11/05 09:32:24;;;;;;;9.20;4.82;;;20.40;46.30;;;;;;4917009;29;20182;-65
2021/11/05 09:34:50;;;;;;;11.07;5.00;;;20.30;46.30;;;;;;4917248;29;20036;-65
2021/11/05 09:37:16;;;;;;;11.90;5.07;;;20.30;46.30;;;;;;4917099;29;20024;-65
2021/11/05 09:39:42;;;;;;;13.13;5.70;;;20.40;46.30;;;;;;4915671;29;20031;-65
2021/11/05 09:42:08;;;;;;;10.63;4.97;;;20.40;46.30;;;;;;4916986;29;20052;-65
2021/11/05 09:44:34;;;;;;;11.75;5.45;;;20.40;46.30;;;;;;4917043;29;20024;-65
2021/11/05 09:47:02;;;;;;;12.40;5.25;;;20.30;46.30;;;;;;4917131;29;20038;-65
2021/11/05 09:49:29;;;;;;;9.57;4.72;;;20.30;46.40;;;;;;4917049;29;20417;-65
2021/11/05 09:51:56;;;;;;;10.93;4.95;;;20.30;46.40;;;;;;4917019;29;20056;-65
2021/11/05 09:54:23;;;;;;;11.15;5.38;;;20.30;46.40;;;;;;4916873;29;20032;-65
2021/11/05 09:56:49;;;;;;;10.32;5.22;;;20.40;46.40;;;;;;4916729;29;20027;-65
2021/11/05 09:59:14;;;;;;;11.20;5.72;;;20.40;46.30;;;;;;4916769;29;20032;-65
2021/11/05 10:01:41;;;;;;;12.32;4.85;;;20.30;46.40;;;;;;4917150;29;20060;-65
2021/11/05 10:04:08;;;;;;;12.10;5.50;;;20.30;46.40;;;;;;4915409;29;20488;-65
2021/11/05 10:06:33;;;;;;;11.60;5.30;;;20.30;46.40;;;;;;4916873;29;20029;-66
2021/11/05 10:08:59;;;;;;;11.52;5.55;;;20.40;46.40;;;;;;4916459;29;20031;-65
2021/11/05 10:11:32;;;;;;;10.32;4.95;;;20.40;46.40;;;;;;4915119;29;20091;-65
2021/11/05 10:13:59;;;;;;;9.55;4.63;;;20.40;46.40;;;;;;4916499;29;20048;-65
2021/11/05 10:16:27;;;;;;;12.35;4.78;;;20.40;46.40;;;;;;4916592;29;20059;-65
2021/11/05 10:19:02;;;;;;;12.02;5.25;;;20.30;46.40;;;;;;4916524;29;20032;-65
2021/11/05 10:21:46;;;;;;;9.32;4.78;;;20.40;46.40;;;;;;4916418;29;20028;-65
2021/11/05 10:24:17;;;;;;;10.02;5.22;;;20.30;46.40;;;;;;4916663;29;20433;-65
2021/11/05 10:26:43;;;;;;;11.80;4.63;;;20.40;46.40;;;;;;4916492;29;20123;-65
2021/11/05 10:29:28;;;;;;;11.25;6.10;;;20.30;46.40;;;;;;4916230;29;20087;-65
2021/11/05 10:32:04;;;;;;;12.70;5.50;;;20.40;46.40;;;;;;4920560;29;20052;-65
2021/11/05 10:34:50;;;;;;;11.48;5.38;;;20.40;46.40;;;;;;4920197;29;20115;-66
2021/11/05 10:37:27;;;;;;;11.13;4.88;;;20.30;46.40;;;;;;4920351;29;20056;-64
2021/11/05 10:39:57;;;;;;;12.30;5.68;;;20.40;46.40;;;;;;4920158;29;20024;-66
2021/11/05 10:42:33;;;;;;;10.48;5.50;;;20.40;46.40;;;;;;4920326;29;20119;-66
2021/11/05 10:45:21;;;;;;;13.90;5.28;;;20.40;46.40;;;;;;4918895;29;20032;-66
2021/11/05 10:47:59;;;;;;;10.93;5.45;;;20.40;46.40;;;;;;4919995;29;20028;-65
2021/11/05 10:50:50;;;;;;;12.65;5.40;;;20.40;46.40;;;;;;4919866;29;20105;-65
2021/11/05 10:53:17;;;;;;;10.77;5.25;;;20.40;46.40;;;;;;4919902;29;20473;-64
2021/11/05 10:56:02;;;;;;;22.02;6.25;;;20.40;46.40;;;;;;4920128;29;20031;-66
2021/11/05 10:58:33;;;;;;;12.35;5.18;;;20.40;46.40;;;;;;4919860;29;20024;-64
2021/11/05 11:01:15;;;;;;;11.35;5.50;;;20.40;46.40;;;;;;4918514;29;20028;-64
2021/11/05 11:04:05;;;;;;;12.00;5.60;;;20.40;46.30;;;;;;4919817;29;20020;-65
2021/11/05 11:06:34;;;;;;;10.15;5.65;;;20.40;46.30;;;;;;4919786;29;20069;-64
2021/11/05 11:09:21;;;;;;;11.30;5.78;;;20.40;46.40;;;;;;4919643;29;20039;-65
2021/11/05 11:11:49;;;;;;;11.73;5.63;;;20.30;46.40;;;;;;4919756;29;20016;-65
2021/11/05 11:14:21;;;;;;;13.07;5.72;;;20.40;46.40;;;;;;4919719;29;20380;-64
2021/11/05 11:16:57;;;;;;;11.63;5.55;;;20.40;46.30;;;;;;4919743;29;20031;-65
2021/11/05 11:19:25;;;;;;;11.10;5.45;;;20.40;46.40;;;;;;4919734;29;20028;-65
2021/11/05 11:21:57;;;;;;;10.77;5.93;;;20.40;46.40;;;;;;4919512;29;20396;-65
2021/11/05 11:24:27;;;;;;;11.15;5.55;;;20.30;46.40;;;;;;4919305;29;20499;-65
2021/11/05 11:26:54;;;;;;;10.50;5.22;;;20.40;46.40;;;;;;4919464;29;20036;-65
2021/11/05 11:29:22;;;;;;;9.52;5.28;;;20.40;46.40;;;;;;4919176;29;20044;-64
2021/11/05 11:31:48;;;;;;;10.50;5.60;;;20.40;46.40;;;;;;4919276;29;20473;-64
2021/11/05 11:34:15;;;;;;;11.73;5.00;;;20.40;46.40;;;;;;4919166;29;20048;-65
2021/11/05 11:36:43;;;;;;;11.88;5.82;;;20.30;46.40;;;;;;4919465;29;20029;-64
2021/11/05 11:39:12;;;;;;;13.55;6.13;;;20.30;46.40;;;;;;4919063;29;20115;-64
2021/11/05 11:41:39;;;;;;;10.15;5.50;;;20.30;46.40;;;;;;4918064;29;20062;-64
2021/11/05 11:44:06;;;;;;;13.32;6.20;;;20.40;46.40;;;;;;4919230;29;20377;-64
2021/11/05 11:47:05;;;;;;;12.07;6.30;;;20.40;46.50;;;;;;4918991;29;20117;-65
2021/11/05 11:49:39;;;;;;;11.63;5.47;;;20.30;46.50;;;;;;4917862;29;20032;-66
2021/11/05 11:52:29;;;;;;;13.57;6.55;;;20.30;46.50;;;;;;4918955;29;20028;-65
2021/11/05 11:54:58;;;;;;;10.75;5.60;;;20.30;46.50;;;;;;4917439;29;20036;-65
2021/11/05 11:57:25;;;;;;;11.63;5.72;;;20.30;46.50;;;;;;4918923;29;20079;-65
2021/11/05 12:00:13;;;;;;;11.63;6.07;;;20.30;46.50;;;;;;4918922;29;20060;-65
2021/11/05 12:02:41;;;;;;;12.13;5.78;;;20.30;46.50;;;;;;4918730;29;20028;-64
2021/11/05 12:05:21;;;;;;;11.95;5.95;;;20.30;46.50;;;;;;4917420;29;20039;-65
2021/11/05 12:08:33;;;;;;;11.20;6.00;;;20.30;46.50;;;;;;4918650;29;20107;-65
2021/11/05 12:11:09;;;;;;;11.48;5.75;;;20.30;46.60;;;;;;4918972;29;20024;-65
2021/11/05 12:13:34;;;;;;;13.15;6.18;;;20.30;46.60;;;;;;4918488;29;20036;-64
2021/11/05 12:16:09;;;;;;;11.43;5.68;;;20.30;46.60;;;;;;4918574;29;20044;-64
2021/11/05 12:18:54;;;;;;;13.13;6.07;;;20.30;46.50;;;;;;4918539;29;20036;-64
2021/11/05 12:21:21;;;;;;;10.85;6.13;;;20.40;46.50;;;;;;4918343;29;20099;-64
2021/11/05 12:24:06;;;;;;;11.68;5.72;;;20.30;46.60;;;;;;4918421;29;20035;-64
2021/11/05 12:26:39;;;;;;;11.98;5.57;;;20.40;46.60;;;;;;4917032;29;20020;-64
2021/11/05 12:29:05;;;;;;;11.33;5.77;;;20.40;46.50;;;;;;4918423;29;20127;-64
2021/11/05 12:31:31;;;;;;;11.82;6.55;;;20.40;46.50;;;;;;4918108;29;20366;-64
2021/11/05 12:34:19;;;;;;;11.98;6.10;;;20.40;46.50;;;;;;4918135;29;20032;-64
2021/11/05 12:36:50;;;;;;;13.63;6.38;;;20.40;46.40;;;;;;4918035;29;20025;-65
2021/11/05 12:39:28;;;;;;;13.52;6.28;;;20.40;46.50;;;;;;4918228;29;20032;-64
2021/11/05 12:42:09;;;;;;;11.70;6.00;;;20.40;46.50;;;;;;4918027;29;20404;-64
2021/11/05 12:44:53;;;;;;;12.65;6.43;;;20.40;46.50;;;;;;4916856;29;20059;-64
2021/11/05 12:47:43;;;;;;;14.52;6.75;;;20.40;46.50;;;;;;4918022;29;20031;-64